createdAt,value
2022-11-08T00:00:38.438Z,0
2022-11-08T00:01:31.603Z,0
2022-11-08T00:02:31.702Z,0
2022-11-08T00:03:31.487Z,0
2022-11-08T00:04:30.946Z,0
2022-11-08T00:05:31.501Z,0
2022-11-08T00:06:31.479Z,0
2022-11-08T00:07:31.502Z,0
2022-11-08T00:08:30.906Z,0
2022-11-08T00:09:32.495Z,0
2022-11-08T00:10:32.482Z,0
2022-11-08T00:11:32.485Z,0
2022-11-08T00:12:32.470Z,0
2022-11-08T00:13:32.492Z,0
2022-11-08T00:14:32.591Z,0
2022-11-08T00:15:32.488Z,0
2022-11-08T00:16:32.574Z,0
2022-11-08T00:17:32.648Z,0
2022-11-08T00:18:32.506Z,0
2022-11-08T00:19:32.486Z,0
2022-11-08T00:20:32.465Z,0
2022-11-08T00:21:32.516Z,0
2022-11-08T00:22:32.591Z,0
2022-11-08T00:23:32.473Z,0
2022-11-08T00:24:32.463Z,0
2022-11-08T00:25:32.478Z,0
2022-11-08T00:26:32.467Z,0
2022-11-08T00:27:32.483Z,0
2022-11-08T00:28:32.452Z,0
2022-11-08T00:29:32.661Z,0
2022-11-08T00:30:32.480Z,0
2022-11-08T00:31:32.488Z,0
2022-11-08T00:32:32.443Z,0
2022-11-08T00:33:32.472Z,0
2022-11-08T00:34:32.480Z,0
2022-11-08T00:35:32.468Z,0
2022-11-08T00:36:32.448Z,0
2022-11-08T00:37:32.527Z,0
2022-11-08T00:38:32.484Z,0
2022-11-08T00:39:33.432Z,0
2022-11-08T00:40:32.443Z,0
2022-11-08T00:41:32.505Z,0
2022-11-08T00:42:32.591Z,0
2022-11-08T00:43:32.466Z,0
2022-11-08T00:44:32.454Z,0
2022-11-08T00:45:32.473Z,0
2022-11-08T00:46:32.474Z,0
2022-11-08T00:47:32.468Z,0
2022-11-08T00:48:32.458Z,0
2022-11-08T00:49:32.659Z,0
2022-11-08T00:50:32.487Z,0
2022-11-08T00:51:32.473Z,0
2022-11-08T00:52:32.466Z,0
2022-11-08T00:53:32.487Z,0
2022-11-08T00:54:32.469Z,0
2022-11-08T00:55:32.478Z,0
2022-11-08T00:56:32.462Z,0
2022-11-08T00:57:53.590Z,0
2022-11-08T00:58:32.528Z,0
2022-11-08T00:59:32.471Z,0
2022-11-08T01:00:32.462Z,0
2022-11-08T01:01:32.615Z,0
2022-11-08T01:02:32.587Z,0
2022-11-08T01:03:32.482Z,0
2022-11-08T01:04:32.535Z,0
2022-11-08T01:05:32.467Z,0
2022-11-08T01:06:32.489Z,0
2022-11-08T01:07:32.573Z,0
2022-11-08T01:08:32.529Z,0
2022-11-08T01:09:33.631Z,0
2022-11-08T01:10:32.475Z,0
2022-11-08T01:11:32.471Z,0
2022-11-08T01:12:32.552Z,0
2022-11-08T01:13:32.440Z,0
2022-11-08T01:14:32.526Z,0
2022-11-08T01:15:32.533Z,0
2022-11-08T01:16:32.497Z,0
2022-11-08T01:17:32.494Z,0
2022-11-08T01:18:32.563Z,0
2022-11-08T01:19:32.554Z,0
2022-11-08T01:20:32.583Z,0
2022-11-08T01:21:32.445Z,0
2022-11-08T01:22:32.462Z,0
2022-11-08T01:23:32.531Z,0
2022-11-08T01:24:32.481Z,0
2022-11-08T01:25:32.658Z,0
2022-11-08T01:26:32.489Z,0
2022-11-08T01:27:32.479Z,0
2022-11-08T01:28:32.563Z,0
2022-11-08T01:29:32.440Z,0
2022-11-08T01:30:32.458Z,0
2022-11-08T01:31:32.478Z,0
2022-11-08T01:32:32.490Z,0
2022-11-08T01:33:32.455Z,0
2022-11-08T01:34:32.560Z,0
2022-11-08T01:35:32.483Z,0
2022-11-08T01:36:32.492Z,0
2022-11-08T01:37:32.467Z,0
2022-11-08T01:38:32.532Z,0
2022-11-08T01:39:32.733Z,0
2022-11-08T01:40:32.601Z,0
2022-11-08T01:41:32.617Z,0
2022-11-08T01:42:32.555Z,0
2022-11-08T01:43:32.622Z,0
2022-11-08T01:44:32.629Z,0
2022-11-08T01:45:32.522Z,0
2022-11-08T01:46:32.677Z,0
2022-11-08T01:47:32.598Z,0
2022-11-08T01:48:32.612Z,0
2022-11-08T01:49:32.603Z,0
2022-11-08T01:50:32.521Z,0
2022-11-08T01:51:32.449Z,0
2022-11-08T01:52:32.465Z,0
2022-11-08T01:53:32.423Z,0
2022-11-08T01:54:32.446Z,0
2022-11-08T01:55:32.640Z,0
2022-11-08T01:56:32.445Z,0
2022-11-08T01:57:32.412Z,0
2022-11-08T01:58:32.547Z,0
2022-11-08T01:59:33.570Z,0
2022-11-08T02:00:32.556Z,0
2022-11-08T02:01:32.584Z,0
2022-11-08T02:02:32.481Z,0
2022-11-08T02:03:32.435Z,0
2022-11-08T02:04:32.461Z,0
2022-11-08T02:05:32.443Z,0
2022-11-08T02:06:32.472Z,0
2022-11-08T02:07:32.427Z,0
2022-11-08T02:08:32.427Z,0
2022-11-08T02:09:32.455Z,0
2022-11-08T02:10:32.456Z,0
2022-11-08T02:11:32.449Z,0
2022-11-08T02:12:32.488Z,0
2022-11-08T02:13:32.425Z,0
2022-11-08T02:14:32.441Z,0
2022-11-08T02:15:32.417Z,0
2022-11-08T02:16:32.429Z,0
2022-11-08T02:17:32.467Z,0
2022-11-08T02:18:32.447Z,0
2022-11-08T02:19:33.644Z,0
2022-11-08T02:20:32.524Z,0
2022-11-08T02:21:32.467Z,0
2022-11-08T02:22:32.513Z,0
2022-11-08T02:23:32.414Z,0
2022-11-08T02:24:32.418Z,0
2022-11-08T02:25:32.462Z,0
2022-11-08T02:26:32.470Z,0
2022-11-08T02:27:32.418Z,0
2022-11-08T02:28:32.449Z,0
2022-11-08T02:29:33.572Z,0
2022-11-08T02:30:32.579Z,0
2022-11-08T02:31:32.408Z,0
2022-11-08T02:32:32.423Z,0
2022-11-08T02:33:32.459Z,0
2022-11-08T02:34:32.448Z,0
2022-11-08T02:35:32.423Z,0
2022-11-08T02:36:32.442Z,0
2022-11-08T02:37:32.510Z,0
2022-11-08T02:38:32.448Z,0
2022-11-08T02:39:32.437Z,0
2022-11-08T02:40:32.596Z,0
2022-11-08T02:41:32.439Z,0
2022-11-08T02:42:32.445Z,0
2022-11-08T02:43:32.433Z,0
2022-11-08T02:44:32.439Z,0
2022-11-08T02:45:32.544Z,0
2022-11-08T02:46:32.476Z,0
2022-11-08T02:47:32.442Z,0
2022-11-08T02:48:32.477Z,0
2022-11-08T02:49:32.672Z,0
2022-11-08T02:50:32.443Z,0
2022-11-08T02:51:32.406Z,0
2022-11-08T02:52:32.528Z,0
2022-11-08T02:53:32.458Z,0
2022-11-08T02:54:32.444Z,0
2022-11-08T02:55:32.411Z,0
2022-11-08T02:56:32.499Z,0
2022-11-08T02:57:32.466Z,0
2022-11-08T02:58:32.436Z,0
2022-11-08T02:59:32.403Z,0
2022-11-08T03:00:32.445Z,0
2022-11-08T03:01:32.561Z,0
2022-11-08T03:02:32.578Z,0
2022-11-08T03:03:32.429Z,0
2022-11-08T03:04:32.486Z,0
2022-11-08T03:05:32.467Z,0
2022-11-08T03:06:32.449Z,0
2022-11-08T03:07:32.400Z,0
2022-11-08T03:08:32.450Z,0
2022-11-08T03:09:32.454Z,0
2022-11-08T03:10:32.604Z,0
2022-11-08T03:11:32.542Z,0
2022-11-08T03:12:32.578Z,0
2022-11-08T03:13:32.532Z,0
2022-11-08T03:14:32.559Z,0
2022-11-08T03:15:32.624Z,0
2022-11-08T03:16:32.577Z,0
2022-11-08T03:17:32.556Z,0
2022-11-08T03:18:32.649Z,0
2022-11-08T03:19:33.586Z,0
2022-11-08T03:20:33.395Z,0
2022-11-08T03:21:32.559Z,0
2022-11-08T03:22:32.571Z,0
2022-11-08T03:23:32.534Z,0
2022-11-08T03:24:32.614Z,0
2022-11-08T03:25:32.586Z,0
2022-11-08T03:26:32.572Z,0
2022-11-08T03:27:32.563Z,0
2022-11-08T03:28:32.606Z,0
2022-11-08T03:29:32.719Z,0
2022-11-08T03:30:32.525Z,0
2022-11-08T03:31:32.536Z,0
2022-11-08T03:32:32.432Z,0
2022-11-08T03:33:32.422Z,0
2022-11-08T03:34:32.433Z,0
2022-11-08T03:35:32.418Z,0
2022-11-08T03:36:32.580Z,0
2022-11-08T03:37:32.473Z,0
2022-11-08T03:38:32.430Z,0
2022-11-08T03:39:32.441Z,0
2022-11-08T03:40:32.518Z,0
2022-11-08T03:41:32.595Z,0
2022-11-08T03:42:32.520Z,0
2022-11-08T03:43:32.546Z,0
2022-11-08T03:44:32.441Z,0
2022-11-08T03:45:32.460Z,0
2022-11-08T03:46:32.469Z,0
2022-11-08T03:47:32.409Z,0
2022-11-08T03:48:32.432Z,0
2022-11-08T03:49:32.443Z,0
2022-11-08T03:50:32.465Z,0
2022-11-08T03:51:32.453Z,0
2022-11-08T03:52:32.444Z,0
2022-11-08T03:53:32.418Z,0
2022-11-08T03:54:32.423Z,0
2022-11-08T03:55:32.412Z,0
2022-11-08T03:56:32.450Z,0
2022-11-08T03:57:32.462Z,0
2022-11-08T03:58:32.503Z,0
2022-11-08T03:59:32.413Z,0
2022-11-08T04:00:32.440Z,0
2022-11-08T04:01:32.603Z,0
2022-11-08T04:02:32.588Z,0
2022-11-08T04:03:32.463Z,0
2022-11-08T04:04:32.419Z,0
2022-11-08T04:05:32.628Z,0
2022-11-08T04:06:32.441Z,0
2022-11-08T04:07:32.483Z,0
2022-11-08T04:08:32.452Z,0
2022-11-08T04:09:32.436Z,0
2022-11-08T04:10:32.420Z,0
2022-11-08T04:11:32.448Z,0
2022-11-08T04:12:32.468Z,0
2022-11-08T04:13:32.450Z,0
2022-11-08T04:14:32.439Z,0
2022-11-08T04:15:32.436Z,0
2022-11-08T04:16:32.558Z,0
2022-11-08T04:17:32.488Z,0
2022-11-08T04:18:32.460Z,0
2022-11-08T04:19:32.966Z,0
2022-11-08T04:20:32.417Z,0
2022-11-08T04:21:32.456Z,0
2022-11-08T04:22:32.426Z,0
2022-11-08T04:23:32.428Z,0
2022-11-08T04:24:32.388Z,0
2022-11-08T04:25:35.114Z,0
2022-11-08T04:26:32.452Z,0
2022-11-08T04:27:32.553Z,0
2022-11-08T04:28:32.399Z,0
2022-11-08T04:29:32.813Z,0
2022-11-08T04:30:32.554Z,0
2022-11-08T04:31:32.424Z,0
2022-11-08T04:32:32.408Z,0
2022-11-08T04:33:32.427Z,0
2022-11-08T04:34:32.459Z,0
2022-11-08T04:35:32.434Z,0
2022-11-08T04:36:32.415Z,0
2022-11-08T04:37:32.449Z,0
2022-11-08T04:38:32.501Z,0
2022-11-08T04:39:32.454Z,0
2022-11-08T04:40:32.428Z,0
2022-11-08T04:41:32.435Z,0
2022-11-08T04:42:32.423Z,0
2022-11-08T04:43:32.434Z,0
2022-11-08T04:44:32.413Z,0
2022-11-08T04:45:32.428Z,0
2022-11-08T04:46:32.428Z,0
2022-11-08T04:47:37.645Z,0
2022-11-08T04:48:32.414Z,0
2022-11-08T04:49:32.741Z,0
2022-11-08T04:50:32.429Z,0
2022-11-08T04:51:32.452Z,0
2022-11-08T04:52:32.389Z,0
2022-11-08T04:53:32.440Z,0
2022-11-08T04:54:32.413Z,0
2022-11-08T04:55:32.456Z,0
2022-11-08T04:56:32.442Z,0
2022-11-08T04:57:32.435Z,0
2022-11-08T04:58:32.433Z,0
2022-11-08T04:59:32.551Z,0
2022-11-08T05:00:32.410Z,0
2022-11-08T05:01:32.558Z,0
2022-11-08T05:02:32.555Z,0
2022-11-08T05:03:32.414Z,0
2022-11-08T05:04:32.443Z,0
2022-11-08T05:05:32.396Z,0
2022-11-08T05:06:32.458Z,0
2022-11-08T05:07:32.456Z,0
2022-11-08T05:08:32.454Z,0
2022-11-08T05:09:32.409Z,0
2022-11-08T05:10:32.440Z,0
2022-11-08T05:11:32.428Z,0
2022-11-08T05:12:32.430Z,0
2022-11-08T05:13:32.400Z,0
2022-11-08T05:14:32.525Z,0
2022-11-08T05:15:32.440Z,0
2022-11-08T05:16:32.416Z,0
2022-11-08T05:17:32.388Z,0
2022-11-08T05:18:32.445Z,0
2022-11-08T05:19:33.388Z,0
2022-11-08T05:20:32.448Z,0
2022-11-08T05:21:32.402Z,0
2022-11-08T05:22:32.461Z,0
2022-11-08T05:23:32.436Z,0
2022-11-08T05:24:32.416Z,0
2022-11-08T05:25:32.436Z,0
2022-11-08T05:26:32.423Z,0
2022-11-08T05:27:32.427Z,0
2022-11-08T05:28:32.435Z,0
2022-11-08T05:29:32.418Z,0
2022-11-08T05:30:32.411Z,0
2022-11-08T05:31:32.468Z,0
2022-11-08T05:32:32.549Z,0
2022-11-08T05:33:32.464Z,0
2022-11-08T05:34:32.449Z,0
2022-11-08T05:35:32.443Z,0
2022-11-08T05:36:32.574Z,0
2022-11-08T05:37:32.437Z,0
2022-11-08T05:38:32.450Z,0
2022-11-08T05:39:33.065Z,0
2022-11-08T05:40:33.491Z,0
2022-11-08T05:41:32.402Z,0
2022-11-08T05:42:32.419Z,0
2022-11-08T05:43:32.454Z,0
2022-11-08T05:44:32.404Z,0
2022-11-08T05:45:32.433Z,0
2022-11-08T05:46:32.436Z,0
2022-11-08T05:47:32.446Z,0
2022-11-08T05:48:32.446Z,0
2022-11-08T05:49:32.402Z,0
2022-11-08T05:50:32.482Z,0
2022-11-08T05:51:32.436Z,0
2022-11-08T05:52:32.419Z,0
2022-11-08T05:53:32.417Z,0
2022-11-08T05:54:32.434Z,0
2022-11-08T05:55:32.413Z,0
2022-11-08T05:56:32.404Z,0
2022-11-08T05:57:32.396Z,0
2022-11-08T05:58:32.426Z,0
2022-11-08T05:59:32.603Z,0
2022-11-08T06:00:32.494Z,0
2022-11-08T06:01:32.502Z,0
2022-11-08T06:02:32.558Z,0
2022-11-08T06:03:32.539Z,0
2022-11-08T06:04:32.406Z,0
2022-11-08T06:05:32.448Z,0
2022-11-08T06:06:32.430Z,0
2022-11-08T06:07:32.414Z,0
2022-11-08T06:08:32.431Z,0
2022-11-08T06:09:32.516Z,0
2022-11-08T06:10:32.479Z,0
2022-11-08T06:11:32.409Z,0
2022-11-08T06:12:32.447Z,0
2022-11-08T06:13:33.128Z,0
2022-11-08T06:14:32.431Z,0
2022-11-08T06:15:32.373Z,0
2022-11-08T06:16:32.545Z,0
2022-11-08T06:17:32.426Z,0
2022-11-08T06:18:32.451Z,0
2022-11-08T06:19:32.868Z,0
2022-11-08T06:20:32.434Z,0
2022-11-08T06:21:32.416Z,0
2022-11-08T06:22:32.416Z,0
2022-11-08T06:23:32.399Z,0
2022-11-08T06:24:32.568Z,0
2022-11-08T06:25:32.422Z,0
2022-11-08T06:26:32.419Z,0
2022-11-08T06:27:32.398Z,0
2022-11-08T06:28:32.418Z,0
2022-11-08T06:29:32.435Z,0
2022-11-08T06:30:32.435Z,0
2022-11-08T06:31:32.494Z,0
2022-11-08T06:32:32.435Z,0
2022-11-08T06:33:32.564Z,0
2022-11-08T06:34:32.421Z,0
2022-11-08T06:35:32.449Z,0
2022-11-08T06:36:32.425Z,0
2022-11-08T06:37:32.407Z,0
2022-11-08T06:38:32.435Z,0
2022-11-08T06:39:32.776Z,0
2022-11-08T06:40:32.442Z,0
2022-11-08T06:41:32.419Z,0
2022-11-08T06:42:32.421Z,0
2022-11-08T06:43:32.399Z,0
2022-11-08T06:44:32.424Z,0.85
2022-11-08T06:45:32.427Z,0.36
2022-11-08T06:46:32.431Z,0
2022-11-08T06:47:32.394Z,0.36
2022-11-08T06:48:35.321Z,0.36
2022-11-08T06:49:32.452Z,0.36
2022-11-08T06:50:32.443Z,0.85
2022-11-08T06:51:32.443Z,1.22
2022-11-08T06:52:32.423Z,0.85
2022-11-08T06:53:32.463Z,1.22
2022-11-08T06:54:32.442Z,0
2022-11-08T06:55:32.418Z,0.85
2022-11-08T06:56:32.410Z,1.22
2022-11-08T06:57:32.409Z,0.85
2022-11-08T06:58:32.491Z,2.08
2022-11-08T06:59:32.919Z,2.08
2022-11-08T07:00:32.435Z,1.22
2022-11-08T07:01:32.707Z,1.22
2022-11-08T07:02:32.544Z,1.22
2022-11-08T07:03:32.411Z,2.08
2022-11-08T07:04:32.462Z,2.08
2022-11-08T07:05:32.416Z,3.43
2022-11-08T07:06:32.434Z,3.43
2022-11-08T07:07:32.463Z,2.94
2022-11-08T07:08:32.456Z,2.94
2022-11-08T07:09:32.398Z,3.43
2022-11-08T07:10:32.444Z,2.94
2022-11-08T07:11:32.427Z,2.57
2022-11-08T07:12:32.647Z,2.08
2022-11-08T07:13:32.454Z,2.08
2022-11-08T07:14:32.538Z,2.08
2022-11-08T07:15:32.451Z,2.08
2022-11-08T07:16:32.482Z,2.08
2022-11-08T07:17:38.239Z,2.08
2022-11-08T07:18:32.499Z,3.43
2022-11-08T07:19:32.434Z,3.43
2022-11-08T07:20:32.430Z,2.57
2022-11-08T07:21:32.459Z,2.94
2022-11-08T07:22:32.443Z,3.43
2022-11-08T07:23:32.429Z,3.79
2022-11-08T07:24:32.426Z,3.79
2022-11-08T07:25:32.393Z,2.94
2022-11-08T07:26:32.450Z,3.79
2022-11-08T07:27:32.414Z,3.79
2022-11-08T07:28:32.446Z,2.94
2022-11-08T07:29:32.395Z,3.43
2022-11-08T07:30:32.439Z,3.79
2022-11-08T07:31:32.443Z,4.28
2022-11-08T07:32:32.413Z,4.28
2022-11-08T07:33:32.375Z,4.28
2022-11-08T07:34:32.427Z,3.79
2022-11-08T07:35:32.418Z,5.14
2022-11-08T07:36:32.501Z,4.28
2022-11-08T07:37:32.401Z,4.28
2022-11-08T07:38:32.450Z,5.99
2022-11-08T07:39:33.122Z,6.48
2022-11-08T07:40:32.411Z,5.99
2022-11-08T07:41:32.394Z,5.99
2022-11-08T07:42:56.801Z,6.85
2022-11-08T07:43:32.578Z,6.48
2022-11-08T07:44:32.492Z,5.63
2022-11-08T07:45:32.374Z,5.63
2022-11-08T07:46:32.417Z,5.63
2022-11-08T07:47:32.461Z,5.63
2022-11-08T07:48:32.483Z,5.99
2022-11-08T07:49:32.394Z,5.14
2022-11-08T07:50:32.442Z,5.14
2022-11-08T07:51:32.388Z,5.14
2022-11-08T07:52:32.395Z,3.79
2022-11-08T07:53:32.404Z,2.94
2022-11-08T07:54:32.434Z,3.43
2022-11-08T07:55:32.401Z,2.57
2022-11-08T07:56:32.525Z,2.57
2022-11-08T07:57:32.446Z,2.57
2022-11-08T07:58:32.422Z,3.79
2022-11-08T07:59:32.480Z,3.43
2022-11-08T08:00:32.438Z,6.48
2022-11-08T08:01:32.430Z,6.48
2022-11-08T08:02:32.581Z,5.99
2022-11-08T08:03:32.536Z,5.99
2022-11-08T08:04:32.397Z,5.63
2022-11-08T08:05:32.441Z,5.63
2022-11-08T08:06:32.463Z,5.99
2022-11-08T08:07:32.406Z,5.63
2022-11-08T08:08:32.404Z,6.48
2022-11-08T08:09:32.776Z,6.48
2022-11-08T08:10:32.424Z,8.19
2022-11-08T08:11:33.932Z,9.05
2022-11-08T08:12:32.545Z,8.19
2022-11-08T08:13:32.420Z,8.56
2022-11-08T08:14:32.429Z,11.25
2022-11-08T08:15:32.475Z,8.56
2022-11-08T08:16:32.374Z,8.56
2022-11-08T08:17:32.566Z,8.19
2022-11-08T08:18:32.455Z,9.05
2022-11-08T08:19:33.003Z,9.54
2022-11-08T08:20:32.450Z,10.39
2022-11-08T08:21:32.433Z,11.25
2022-11-08T08:22:32.432Z,11.62
2022-11-08T08:23:32.455Z,11.62
2022-11-08T08:24:32.401Z,9.91
2022-11-08T08:25:32.410Z,9.54
2022-11-08T08:26:32.425Z,8.19
2022-11-08T08:27:32.433Z,8.56
2022-11-08T08:28:32.390Z,9.54
2022-11-08T08:29:32.405Z,9.54
2022-11-08T08:30:32.438Z,9.05
2022-11-08T08:31:32.421Z,9.91
2022-11-08T08:32:32.421Z,9.54
2022-11-08T08:33:32.492Z,9.05
2022-11-08T08:34:32.424Z,9.54
2022-11-08T08:35:32.391Z,10.39
2022-11-08T08:36:32.393Z,9.91
2022-11-08T08:37:32.457Z,9.54
2022-11-08T08:38:32.440Z,9.05
2022-11-08T08:39:32.400Z,11.25
2022-11-08T08:40:32.416Z,13.33
2022-11-08T08:41:32.419Z,13.82
2022-11-08T08:42:32.505Z,14.31
2022-11-08T08:43:32.509Z,12.48
2022-11-08T08:44:32.385Z,15.53
2022-11-08T08:45:32.427Z,15.53
2022-11-08T08:46:32.385Z,19.45
2022-11-08T08:47:32.413Z,20.8
2022-11-08T08:48:32.388Z,21.65
2022-11-08T08:49:32.432Z,21.65
2022-11-08T08:50:32.542Z,21.16
2022-11-08T08:51:32.408Z,20.8
2022-11-08T08:52:32.392Z,21.16
2022-11-08T08:53:32.488Z,22.02
2022-11-08T08:54:32.502Z,22.87
2022-11-08T08:55:32.586Z,22.02
2022-11-08T08:56:32.394Z,21.65
2022-11-08T08:57:32.437Z,19.08
2022-11-08T08:58:32.544Z,19.08
2022-11-08T09:01:39.916Z,25.07
2022-11-08T09:02:32.415Z,25.07
2022-11-08T09:03:32.406Z,23.85
2022-11-08T09:04:32.486Z,20.31
2022-11-08T09:05:32.469Z,19.08
2022-11-08T09:06:32.495Z,18.6
2022-11-08T09:07:32.436Z,16.88
2022-11-08T09:08:32.459Z,19.08
2022-11-08T09:09:32.638Z,20.8
2022-11-08T09:10:32.407Z,24.22
2022-11-08T09:11:32.445Z,25.94
2022-11-08T09:12:32.451Z,28.63
2022-11-08T09:13:32.433Z,31.19
2022-11-08T09:14:32.461Z,35.48
2022-11-08T09:15:32.418Z,40.73
2022-11-08T09:16:32.417Z,37.19
2022-11-08T09:17:32.528Z,36.33
2022-11-08T09:18:32.615Z,32.05
2022-11-08T09:19:32.411Z,31.56
2022-11-08T09:20:32.384Z,32.05
2022-11-08T09:21:32.511Z,32.9
2022-11-08T09:22:32.550Z,32.05
2022-11-08T09:23:32.409Z,32.9
2022-11-08T09:24:32.401Z,28.99
2022-11-08T09:25:32.399Z,26.42
2022-11-08T09:26:32.369Z,27.28
2022-11-08T09:27:32.414Z,29.48
2022-11-08T09:28:32.413Z,29.48
2022-11-08T09:29:32.402Z,29.85
2022-11-08T09:30:32.370Z,32.05
2022-11-08T09:31:32.436Z,28.14
2022-11-08T09:32:46.338Z,28.99
2022-11-08T09:33:32.514Z,26.79
2022-11-08T09:34:32.430Z,22.02
2022-11-08T09:35:32.396Z,22.87
2022-11-08T09:36:32.428Z,22.51
2022-11-08T09:37:32.412Z,22.51
2022-11-08T09:38:32.402Z,22.02
2022-11-08T09:39:32.735Z,22.02
2022-11-08T09:40:32.410Z,23.85
2022-11-08T09:41:32.415Z,25.07
2022-11-08T09:42:32.386Z,26.42
2022-11-08T09:43:32.468Z,25.56
2022-11-08T09:44:32.419Z,25.94
2022-11-08T09:45:32.427Z,26.42
2022-11-08T09:46:32.397Z,28.14
2022-11-08T09:47:32.438Z,27.65
2022-11-08T09:48:32.428Z,28.63
2022-11-08T09:49:32.992Z,32.42
2022-11-08T09:50:32.407Z,37.68
2022-11-08T09:51:32.443Z,41.1
2022-11-08T09:52:32.401Z,44.16
2022-11-08T09:53:32.432Z,46.73
2022-11-08T09:54:32.493Z,42.94
2022-11-08T09:55:32.403Z,36.82
2022-11-08T09:56:32.405Z,35.11
2022-11-08T09:57:32.434Z,32.42
2022-11-08T09:58:32.379Z,31.56
2022-11-08T09:59:33.000Z,28.99
2022-11-08T10:00:32.424Z,29.48
2022-11-08T10:01:32.451Z,29.85
2022-11-08T10:02:32.461Z,30.34
2022-11-08T10:03:32.421Z,29.85
2022-11-08T10:04:32.386Z,26.79
2022-11-08T10:05:32.414Z,25.94
2022-11-08T10:06:32.666Z,28.63
2022-11-08T10:07:32.408Z,29.48
2022-11-08T10:08:32.495Z,27.65
2022-11-08T10:09:33.119Z,25.56
2022-11-08T10:10:32.591Z,25.07
2022-11-08T10:11:32.442Z,24.71
2022-11-08T10:12:32.404Z,24.22
2022-11-08T10:13:32.466Z,22.87
2022-11-08T10:14:32.409Z,25.56
2022-11-08T10:15:32.447Z,27.65
2022-11-08T10:16:32.376Z,32.9
2022-11-08T10:17:32.402Z,33.76
2022-11-08T10:18:32.410Z,33.39
2022-11-08T10:19:32.385Z,28.63
2022-11-08T10:20:32.442Z,25.56
2022-11-08T10:21:32.430Z,25.07
2022-11-08T10:22:32.394Z,24.22
2022-11-08T10:23:32.401Z,25.07
2022-11-08T10:24:32.406Z,26.42
2022-11-08T10:25:32.403Z,27.28
2022-11-08T10:26:32.456Z,26.79
2022-11-08T10:27:32.429Z,26.79
2022-11-08T10:28:32.381Z,23.85
2022-11-08T10:29:32.413Z,23.36
2022-11-08T10:30:32.427Z,22.87
2022-11-08T10:31:32.398Z,24.71
2022-11-08T10:32:32.364Z,23.85
2022-11-08T10:33:32.639Z,22.87
2022-11-08T10:34:32.416Z,23.36
2022-11-08T10:35:32.422Z,22.87
2022-11-08T10:36:32.403Z,22.87
2022-11-08T10:37:32.420Z,24.71
2022-11-08T10:38:32.556Z,26.42
2022-11-08T10:39:32.391Z,29.48
2022-11-08T10:40:32.403Z,29.48
2022-11-08T10:41:32.379Z,29.85
2022-11-08T10:42:32.441Z,29.85
2022-11-08T10:43:32.403Z,29.85
2022-11-08T10:44:32.408Z,29.48
2022-11-08T10:45:32.419Z,30.34
2022-11-08T10:46:32.493Z,32.05
2022-11-08T10:47:32.405Z,31.19
2022-11-08T10:48:32.381Z,29.85
2022-11-08T10:49:33.267Z,29.48
2022-11-08T10:50:32.405Z,28.14
2022-11-08T10:51:32.514Z,26.79
2022-11-08T10:52:32.452Z,27.65
2022-11-08T10:53:32.428Z,28.63
2022-11-08T10:54:32.415Z,29.48
2022-11-08T10:55:32.404Z,29.85
2022-11-08T10:56:35.523Z,27.65
2022-11-08T10:57:32.384Z,26.79
2022-11-08T10:58:32.385Z,28.63
2022-11-08T10:59:33.033Z,28.14
2022-11-08T11:00:32.441Z,27.65
2022-11-08T11:01:32.463Z,26.79
2022-11-08T11:02:32.343Z,25.94
2022-11-08T11:03:32.433Z,23.36
2022-11-08T11:04:32.468Z,21.65
2022-11-08T11:05:32.403Z,20.31
2022-11-08T11:06:32.459Z,20.8
2022-11-08T11:07:32.393Z,20.8
2022-11-08T11:08:32.433Z,18.6
2022-11-08T11:09:33.251Z,16.02
2022-11-08T11:10:32.400Z,16.02
2022-11-08T11:11:32.399Z,17.73
2022-11-08T11:12:32.398Z,18.11
2022-11-08T11:13:32.485Z,20.31
2022-11-08T11:14:32.393Z,21.16
2022-11-08T11:15:32.443Z,21.65
2022-11-08T11:16:32.408Z,22.51
2022-11-08T11:17:35.587Z,25.94
2022-11-08T11:18:32.353Z,27.28
2022-11-08T11:19:32.941Z,24.71
2022-11-08T11:20:32.410Z,22.87
2022-11-08T11:21:32.396Z,25.56
2022-11-08T11:22:32.431Z,32.9
2022-11-08T11:23:32.514Z,29.48
2022-11-08T11:24:32.428Z,25.94
2022-11-08T11:25:32.385Z,23.36
2022-11-08T11:26:32.391Z,26.79
2022-11-08T11:27:32.578Z,31.56
2022-11-08T11:28:32.387Z,35.11
2022-11-08T11:29:32.518Z,39.02
2022-11-08T11:30:32.419Z,44.16
2022-11-08T11:31:32.429Z,44.65
2022-11-08T11:32:32.376Z,46.36
2022-11-08T11:33:32.474Z,47.22
2022-11-08T11:34:32.416Z,51.99
2022-11-08T11:35:32.398Z,41.1
2022-11-08T11:36:32.358Z,28.14
2022-11-08T11:37:32.460Z,23.85
2022-11-08T11:38:32.411Z,22.87
2022-11-08T11:39:32.389Z,22.51
2022-11-08T11:40:32.412Z,24.71
2022-11-08T11:41:32.639Z,25.94
2022-11-08T11:42:45.753Z,27.65
2022-11-08T11:43:32.406Z,28.14
2022-11-08T11:44:32.363Z,25.07
2022-11-08T11:45:32.661Z,25.56
2022-11-08T11:46:35.205Z,25.94
2022-11-08T11:47:32.485Z,24.71
2022-11-08T11:48:32.403Z,23.85
2022-11-08T11:49:32.402Z,22.02
2022-11-08T11:50:32.383Z,19.08
2022-11-08T11:51:32.485Z,17.25
2022-11-08T11:52:32.384Z,16.88
2022-11-08T11:53:32.387Z,17.73
2022-11-08T11:54:32.401Z,18.11
2022-11-08T11:55:32.496Z,18.11
2022-11-08T11:56:32.374Z,18.6
2022-11-08T11:57:32.555Z,19.94
2022-11-08T11:58:32.408Z,19.45
2022-11-08T11:59:32.729Z,20.31
2022-11-08T12:00:32.363Z,20.8
2022-11-08T12:01:32.605Z,22.51
2022-11-08T12:02:32.481Z,22.87
2022-11-08T12:03:32.401Z,22.51
2022-11-08T12:04:32.396Z,22.51
2022-11-08T12:05:32.405Z,22.02
2022-11-08T12:06:32.481Z,19.94
2022-11-08T12:07:32.367Z,18.6
2022-11-08T12:08:32.377Z,18.6
2022-11-08T12:09:33.220Z,17.25
2022-11-08T12:10:32.400Z,15.53
2022-11-08T12:11:32.390Z,14.31
2022-11-08T12:12:32.390Z,13.82
2022-11-08T12:13:32.393Z,14.68
2022-11-08T12:14:32.386Z,14.31
2022-11-08T12:15:32.395Z,14.68
2022-11-08T12:16:32.417Z,16.39
2022-11-08T12:17:32.392Z,17.73
2022-11-08T12:18:42.623Z,18.11
2022-11-08T12:19:32.369Z,19.45
2022-11-08T12:20:32.393Z,19.94
2022-11-08T12:21:32.406Z,21.16
2022-11-08T12:22:32.381Z,22.87
2022-11-08T12:23:32.385Z,25.56
2022-11-08T12:24:32.446Z,26.42
2022-11-08T12:25:32.470Z,27.65
2022-11-08T12:26:32.375Z,29.85
2022-11-08T12:27:32.385Z,29.85
2022-11-08T12:28:32.390Z,29.85
2022-11-08T12:29:33.188Z,29.48
2022-11-08T12:30:32.392Z,28.63
2022-11-08T12:31:32.356Z,28.63
2022-11-08T12:32:32.389Z,28.99
2022-11-08T12:33:32.383Z,28.14
2022-11-08T12:34:32.370Z,27.28
2022-11-08T12:35:32.359Z,27.28
2022-11-08T12:36:32.399Z,25.56
2022-11-08T12:37:32.421Z,25.07
2022-11-08T12:38:32.448Z,22.51
2022-11-08T12:39:32.395Z,19.94
2022-11-08T12:40:32.391Z,17.73
2022-11-08T12:41:32.395Z,17.73
2022-11-08T12:42:32.441Z,17.25
2022-11-08T12:43:32.428Z,16.02
2022-11-08T12:44:32.399Z,16.88
2022-11-08T12:45:32.422Z,17.25
2022-11-08T12:46:32.385Z,19.08
2022-11-08T12:47:32.407Z,19.08
2022-11-08T12:48:32.445Z,19.08
2022-11-08T12:49:32.915Z,18.6
2022-11-08T12:50:32.427Z,18.11
2022-11-08T12:51:32.375Z,16.39
2022-11-08T12:52:32.509Z,16.02
2022-11-08T12:53:32.400Z,15.17
2022-11-08T12:54:32.405Z,14.68
2022-11-08T12:55:32.376Z,14.31
2022-11-08T12:56:34.462Z,14.68
2022-11-08T12:57:32.382Z,14.31
2022-11-08T12:58:34.314Z,14.31
2022-11-08T12:59:33.324Z,14.68
2022-11-08T13:00:32.426Z,16.02
2022-11-08T13:01:32.458Z,16.02
2022-11-08T13:02:32.371Z,16.02
2022-11-08T13:03:32.384Z,14.68
2022-11-08T13:04:32.856Z,14.68
2022-11-08T13:05:32.423Z,13.82
2022-11-08T13:06:32.426Z,13.33
2022-11-08T13:07:32.339Z,12.11
2022-11-08T13:08:32.377Z,12.48
2022-11-08T13:09:33.253Z,11.62
2022-11-08T13:10:32.378Z,11.25
2022-11-08T13:11:32.390Z,10.39
2022-11-08T13:12:32.460Z,11.25
2022-11-08T13:13:32.397Z,11.25
2022-11-08T13:14:34.974Z,12.11
2022-11-08T13:15:32.348Z,11.62
2022-11-08T13:16:32.365Z,12.11
2022-11-08T13:17:32.521Z,12.11
2022-11-08T13:18:32.473Z,11.25
2022-11-08T13:19:32.605Z,10.39
2022-11-08T13:20:32.367Z,9.54
2022-11-08T13:21:32.390Z,9.91
2022-11-08T13:22:32.371Z,8.56
2022-11-08T13:23:32.347Z,7.7
2022-11-08T13:24:43.998Z,6.48
2022-11-08T13:25:32.398Z,6.48
2022-11-08T13:26:32.344Z,5.63
2022-11-08T13:27:32.381Z,6.48
2022-11-08T13:28:32.491Z,5.14
2022-11-08T13:29:32.393Z,4.77
2022-11-08T13:30:32.373Z,5.14
2022-11-08T13:31:32.367Z,4.77
2022-11-08T13:32:32.366Z,3.43
2022-11-08T13:33:32.399Z,2.57
2022-11-08T13:34:32.394Z,2.94
2022-11-08T13:35:32.388Z,2.94
2022-11-08T13:36:32.364Z,2.57
2022-11-08T13:37:32.368Z,2.57
2022-11-08T13:38:32.406Z,2.57
2022-11-08T13:39:32.622Z,1.71
2022-11-08T13:40:32.482Z,2.94
2022-11-08T13:41:32.383Z,1.71
2022-11-08T13:42:32.377Z,2.08
2022-11-08T13:43:32.375Z,2.94
2022-11-08T13:44:32.489Z,2.57
2022-11-08T13:45:32.376Z,2.57
2022-11-08T13:46:32.372Z,2.08
2022-11-08T13:47:32.347Z,2.57
2022-11-08T13:48:32.413Z,2.57
2022-11-08T13:49:32.987Z,3.43
2022-11-08T13:50:32.367Z,1.71
2022-11-08T13:51:32.366Z,1.71
2022-11-08T13:52:32.364Z,2.08